createdAt,value
2018-06-08T00:00:16.855Z,3.60
2018-06-08T00:02:44.885Z,3.50
2018-06-08T00:05:12.935Z,3.70
2018-06-08T00:07:40.985Z,3.30
2018-06-08T00:10:09.699Z,3.58
2018-06-08T00:12:37.739Z,3.40
2018-06-08T00:15:05.772Z,3.20
2018-06-08T00:17:33.800Z,3.42
2018-06-08T00:20:01.837Z,3.90
2018-06-08T00:22:29.868Z,3.50
2018-06-08T00:24:57.899Z,3.30
2018-06-08T00:27:25.922Z,3.60
2018-06-08T00:29:53.932Z,3.42
2018-06-08T00:32:21.952Z,3.00
2018-06-08T00:34:49.976Z,3.60
2018-06-08T00:37:17.996Z,3.67
2018-06-08T00:39:46.016Z,3.90
2018-06-08T00:42:14.036Z,3.40
2018-06-08T00:44:42.101Z,3.90
2018-06-08T00:47:10.153Z,3.58
2018-06-08T00:49:38.164Z,3.40
2018-06-08T00:52:06.160Z,3.50
2018-06-08T00:54:34.181Z,4.00
2018-06-08T00:57:07.240Z,3.92
2018-06-08T00:59:35.284Z,3.80
2018-06-08T01:02:03.327Z,3.65
2018-06-08T01:04:31.353Z,3.58
2018-06-08T01:06:59.379Z,3.60
2018-06-08T01:09:27.383Z,4.20
2018-06-08T01:11:55.395Z,3.20
2018-06-08T01:14:30.991Z,4.37
2018-06-08T01:16:59.699Z,3.90
2018-06-08T01:19:27.836Z,3.80
2018-06-08T01:21:55.868Z,4.17
2018-06-08T01:24:23.879Z,4.50
2018-06-08T01:26:51.887Z,3.80
2018-06-08T01:29:19.924Z,4.40
2018-06-08T01:31:47.961Z,4.20
2018-06-08T01:34:16.000Z,3.80
2018-06-08T01:36:44.008Z,3.70
2018-06-08T01:39:12.029Z,4.20
2018-06-08T01:41:40.048Z,3.80
2018-06-08T01:44:08.048Z,3.95
2018-06-08T01:46:36.059Z,4.00
2018-06-08T01:49:04.084Z,3.70
2018-06-08T01:51:32.128Z,3.60
2018-06-08T01:54:00.158Z,4.03
2018-06-08T01:56:28.707Z,4.00
2018-06-08T01:58:56.892Z,3.80
2018-06-08T02:01:24.909Z,4.10
2018-06-08T02:03:53.031Z,3.90
2018-06-08T02:06:21.083Z,3.90
2018-06-08T02:08:49.107Z,3.90
2018-06-08T02:11:17.180Z,4.10
2018-06-08T02:13:45.196Z,4.00
2018-06-08T02:16:13.228Z,3.97
2018-06-08T02:18:41.237Z,3.80
2018-06-08T02:21:09.268Z,3.90
2018-06-08T02:23:37.300Z,6.03
2018-06-08T02:26:05.323Z,5.05
2018-06-08T02:28:33.345Z,4.60
2018-06-08T02:31:01.365Z,4.33
2018-06-08T02:33:29.383Z,3.80
2018-06-08T02:35:57.218Z,4.17
2018-06-08T02:38:25.219Z,4.50
2018-06-08T02:40:53.059Z,4.42
2018-06-08T02:43:21.055Z,4.20
2018-06-08T02:45:49.080Z,4.20
2018-06-08T02:48:17.083Z,3.98
2018-06-08T02:50:45.123Z,4.78
2018-06-08T02:53:13.132Z,4.45
2018-06-08T02:55:40.963Z,4.17
2018-06-08T02:58:08.989Z,4.43
2018-06-08T03:00:37.028Z,4.62
2018-06-08T03:03:05.136Z,4.30
2018-06-08T03:05:33.164Z,4.03
2018-06-08T03:08:01.186Z,4.30
2018-06-08T03:10:29.188Z,4.35
2018-06-08T03:12:57.212Z,3.87
2018-06-08T03:15:25.222Z,4.42
2018-06-08T03:17:53.233Z,4.70
2018-06-08T03:20:21.269Z,4.20
2018-06-08T03:22:49.306Z,4.45
2018-06-08T03:25:17.362Z,4.80
2018-06-08T03:27:45.348Z,9.70
2018-06-08T03:30:13.373Z,4.40
2018-06-08T03:32:41.372Z,4.20
2018-06-08T03:35:09.400Z,4.53
2018-06-08T03:37:37.420Z,4.40
2018-06-08T03:40:05.444Z,4.50
2018-06-08T03:42:33.452Z,4.60
2018-06-08T03:45:01.468Z,4.67
2018-06-08T03:47:29.499Z,4.35
2018-06-08T03:49:57.505Z,4.65
2018-06-08T03:52:25.546Z,4.50
2018-06-08T03:54:53.549Z,4.70
2018-06-08T03:57:21.564Z,4.80
2018-06-08T03:59:49.594Z,4.70
2018-06-08T04:02:17.612Z,5.00
2018-06-08T04:04:45.611Z,5.00
2018-06-08T04:07:13.624Z,5.60
2018-06-08T04:09:41.444Z,5.47
2018-06-08T04:12:09.455Z,5.67
2018-06-08T04:14:37.483Z,5.25
2018-06-08T04:17:05.513Z,5.37
2018-06-08T04:19:33.525Z,5.50
2018-06-08T04:22:01.542Z,5.70
2018-06-08T04:24:29.567Z,5.17
2018-06-08T04:26:57.579Z,5.25
2018-06-08T04:29:25.588Z,5.25
2018-06-08T04:31:53.605Z,5.50
2018-06-08T04:34:21.428Z,6.10
2018-06-08T04:36:49.444Z,5.60
2018-06-08T04:39:17.500Z,5.87
2018-06-08T04:41:45.516Z,5.90
2018-06-08T04:44:13.527Z,5.58
2018-06-08T04:46:41.537Z,6.63
2018-06-08T04:49:09.560Z,6.00
2018-06-08T04:51:37.622Z,6.25
2018-06-08T04:54:05.609Z,5.60
2018-06-08T04:56:33.612Z,6.35
2018-06-08T04:59:01.636Z,6.40
2018-06-08T05:01:29.657Z,6.58
2018-06-08T05:03:57.703Z,6.30
2018-06-08T05:06:25.531Z,6.55
2018-06-08T05:08:53.580Z,6.42
2018-06-08T05:11:21.660Z,6.20
2018-06-08T05:13:49.679Z,5.65
2018-06-08T05:16:17.695Z,5.87
2018-06-08T05:18:45.724Z,9.20
2018-06-08T05:21:13.737Z,9.30
2018-06-08T05:23:41.768Z,6.53
2018-06-08T05:26:09.655Z,8.00
2018-06-08T05:28:37.650Z,6.20
2018-06-08T05:31:05.913Z,6.30
2018-06-08T05:33:33.928Z,6.30
2018-06-08T05:36:01.968Z,5.92
2018-06-08T05:38:30.019Z,6.20
2018-06-08T05:40:58.099Z,7.40
2018-06-08T05:43:26.076Z,6.55
2018-06-08T05:45:54.086Z,6.42
2018-06-08T05:48:21.993Z,6.43
2018-06-08T05:50:49.978Z,6.78
2018-06-08T05:53:18.005Z,6.10
2018-06-08T05:55:46.019Z,6.20
2018-06-08T05:58:14.052Z,7.10
2018-06-08T06:00:42.080Z,6.70
2018-06-08T06:03:10.108Z,6.90
2018-06-08T06:05:38.111Z,7.12
2018-06-08T06:08:06.170Z,7.37
2018-06-08T06:10:34.139Z,6.80
2018-06-08T06:13:02.188Z,6.20
2018-06-08T06:15:30.208Z,6.30
2018-06-08T06:17:58.252Z,6.90
2018-06-08T06:20:26.336Z,6.70
2018-06-08T06:22:54.372Z,6.17
2018-06-08T06:25:24.428Z,6.65
2018-06-08T06:27:52.480Z,7.70
2018-06-08T06:30:20.520Z,7.33
2018-06-08T06:32:48.524Z,6.60
2018-06-08T06:35:16.555Z,6.83
2018-06-08T06:37:44.603Z,6.60
2018-06-08T06:40:12.479Z,7.57
2018-06-08T06:42:40.492Z,6.37
2018-06-08T06:45:08.516Z,6.60
2018-06-08T06:47:36.545Z,6.90
2018-06-08T06:50:04.621Z,6.23
2018-06-08T06:52:32.680Z,6.50
2018-06-08T06:55:00.733Z,6.90
2018-06-08T06:57:28.753Z,6.58
2018-06-08T06:59:56.765Z,6.50
2018-06-08T07:02:24.786Z,6.22
2018-06-08T07:04:52.787Z,7.05
2018-06-08T07:07:20.788Z,6.50
2018-06-08T07:09:48.795Z,6.65
2018-06-08T07:12:16.814Z,6.60
2018-06-08T07:14:44.865Z,6.60
2018-06-08T07:17:12.915Z,6.45
2018-06-08T07:19:40.738Z,5.70
2018-06-08T07:22:08.808Z,5.35
2018-06-08T07:24:36.833Z,6.20
2018-06-08T07:27:04.849Z,6.00
2018-06-08T07:29:32.872Z,5.90
2018-06-08T07:32:00.926Z,6.33
2018-06-08T07:34:28.924Z,5.67
2018-06-08T07:36:56.924Z,5.70
2018-06-08T07:39:24.984Z,7.42
2018-06-08T07:41:52.999Z,6.10
2018-06-08T07:44:20.855Z,5.40
2018-06-08T07:46:48.935Z,6.28
2018-06-08T07:49:16.954Z,5.30
2018-06-08T07:51:45.001Z,5.28
2018-06-08T07:54:13.050Z,5.30
2018-06-08T07:56:41.080Z,5.30
2018-06-08T07:59:09.123Z,5.50
2018-06-08T08:01:37.157Z,5.40
2018-06-08T08:04:05.002Z,5.10
2018-06-08T08:06:33.025Z,4.53
2018-06-08T08:09:01.069Z,5.10
2018-06-08T08:11:28.892Z,5.40
2018-06-08T08:13:56.917Z,5.42
2018-06-08T08:16:24.953Z,5.60
2018-06-08T08:18:52.976Z,4.70
2018-06-08T08:21:21.004Z,5.35
2018-06-08T08:23:48.848Z,5.03
2018-06-08T08:26:17.087Z,9.60
2018-06-08T08:28:45.125Z,7.12
2018-06-08T08:31:12.962Z,4.70
2018-06-08T08:33:40.997Z,5.00
2018-06-08T08:36:09.044Z,4.70
2018-06-08T08:38:37.120Z,4.60
2018-06-08T08:41:05.359Z,5.50
2018-06-08T08:43:33.392Z,4.50
2018-06-08T08:46:01.433Z,5.00
2018-06-08T08:48:29.468Z,4.87
2018-06-08T08:50:57.508Z,5.60
2018-06-08T08:53:25.534Z,5.00
2018-06-08T08:55:53.576Z,4.95
2018-06-08T08:58:21.625Z,4.72
2018-06-08T09:00:49.677Z,4.67
2018-06-08T09:03:17.726Z,4.87
2018-06-08T09:05:45.754Z,5.08
2018-06-08T09:08:13.774Z,4.80
2018-06-08T09:10:41.812Z,5.40
2018-06-08T09:13:09.644Z,5.83
2018-06-08T09:15:37.674Z,4.85
2018-06-08T09:18:05.701Z,4.60
2018-06-08T09:20:33.736Z,4.70
2018-06-08T09:23:01.813Z,5.30
2018-06-08T09:25:29.852Z,4.90
2018-06-08T09:27:57.900Z,4.97
2018-06-08T09:30:25.925Z,5.00
2018-06-08T09:32:53.952Z,4.70
2018-06-08T09:35:22.044Z,4.90
2018-06-08T09:37:50.077Z,5.00
2018-06-08T09:40:18.101Z,5.47
2018-06-08T09:42:46.127Z,4.72
2018-06-08T09:45:14.178Z,4.30
2018-06-08T09:47:42.231Z,4.80
2018-06-08T09:50:10.257Z,4.78
2018-06-08T09:52:38.271Z,4.85
2018-06-08T09:55:06.275Z,4.72
2018-06-08T09:57:34.310Z,5.00
2018-06-08T10:00:02.318Z,5.37
2018-06-08T10:02:30.328Z,6.10
2018-06-08T10:04:58.367Z,5.00
2018-06-08T10:07:26.449Z,4.95
2018-06-08T10:09:54.476Z,4.90
2018-06-08T10:12:22.481Z,4.62
2018-06-08T10:14:50.527Z,5.08
2018-06-08T10:17:18.360Z,5.17
2018-06-08T10:19:46.393Z,4.80
2018-06-08T10:22:14.431Z,4.90
2018-06-08T10:24:42.284Z,5.17
2018-06-08T10:27:10.308Z,5.90
2018-06-08T10:29:38.332Z,5.03
2018-06-08T10:32:06.351Z,4.80
2018-06-08T10:34:34.372Z,5.15
2018-06-08T10:37:02.199Z,5.20
2018-06-08T10:39:30.212Z,5.37
2018-06-08T10:41:58.236Z,6.10
2018-06-08T10:44:26.247Z,5.00
2018-06-08T10:46:54.074Z,5.17
2018-06-08T10:49:22.107Z,6.05
2018-06-08T10:51:50.112Z,5.40
2018-06-08T10:54:18.120Z,5.30
2018-06-08T10:56:45.948Z,5.40
2018-06-08T10:59:13.964Z,4.78
2018-06-08T11:01:42.008Z,5.40
2018-06-08T11:04:10.057Z,5.22
2018-06-08T11:06:38.100Z,4.83
2018-06-08T11:09:07.667Z,5.20
2018-06-08T11:11:35.691Z,5.60
2018-06-08T11:14:03.759Z,4.85
2018-06-08T11:16:31.787Z,5.37
2018-06-08T11:18:59.613Z,5.80
2018-06-08T11:21:27.670Z,5.70
2018-06-08T11:23:55.685Z,6.07
2018-06-08T11:26:23.696Z,6.15
2018-06-08T11:28:51.724Z,5.75
2018-06-08T11:31:19.544Z,5.83
2018-06-08T11:33:47.569Z,6.05
2018-06-08T11:36:15.576Z,6.63
2018-06-08T11:38:43.591Z,6.25
2018-06-08T11:41:11.644Z,6.30
2018-06-08T11:43:39.678Z,6.60
2018-06-08T11:46:07.689Z,7.40
2018-06-08T11:48:35.690Z,6.40
2018-06-08T11:51:03.717Z,5.83
2018-06-08T11:53:31.730Z,6.40
2018-06-08T11:55:59.756Z,6.30
2018-06-08T11:58:27.772Z,6.90
2018-06-08T12:00:55.797Z,6.20
2018-06-08T12:03:23.845Z,7.20
2018-06-08T12:05:51.876Z,6.95
2018-06-08T12:08:19.697Z,6.00
2018-06-08T12:10:47.727Z,6.40
2018-06-08T12:13:15.748Z,6.40
2018-06-08T12:15:43.776Z,6.75
2018-06-08T12:18:11.804Z,6.50
2018-06-08T12:20:39.812Z,6.90
2018-06-08T12:23:07.885Z,6.17
2018-06-08T12:25:35.907Z,6.30
2018-06-08T12:28:03.965Z,6.62
2018-06-08T12:30:31.993Z,6.37
2018-06-08T12:33:00.032Z,6.10
2018-06-08T12:35:28.056Z,6.33
2018-06-08T12:37:56.075Z,6.00
2018-06-08T12:40:24.112Z,6.30
2018-06-08T12:42:52.148Z,6.70
2018-06-08T12:45:20.198Z,6.50
2018-06-08T12:47:48.220Z,6.17
2018-06-08T12:50:16.265Z,6.42
2018-06-08T12:52:44.296Z,6.93
2018-06-08T12:55:12.329Z,6.30
2018-06-08T12:57:40.410Z,6.20
2018-06-08T13:00:08.468Z,6.20
2018-06-08T13:02:36.504Z,6.20
2018-06-08T13:05:04.528Z,6.50
2018-06-08T13:07:32.565Z,6.50
2018-06-08T13:10:00.622Z,6.43
2018-06-08T13:12:28.652Z,6.70
2018-06-08T13:14:56.503Z,6.67
2018-06-08T13:17:24.594Z,6.50
2018-06-08T13:19:52.428Z,6.40
2018-06-08T13:22:20.463Z,6.67
2018-06-08T13:24:48.476Z,6.90
2018-06-08T13:27:16.500Z,6.62
2018-06-08T13:29:44.516Z,6.83
2018-06-08T13:32:12.580Z,6.87
2018-06-08T13:34:40.608Z,6.67
2018-06-08T13:37:08.643Z,6.67
2018-06-08T13:39:36.498Z,7.65
2018-06-08T13:42:04.500Z,7.50
2018-06-08T13:44:39.409Z,7.62
2018-06-08T13:47:07.437Z,7.10
2018-06-08T13:49:35.453Z,7.03
2018-06-08T13:52:03.494Z,7.07
2018-06-08T13:54:31.505Z,6.80
2018-06-08T13:56:59.549Z,7.12
2018-06-08T13:59:27.568Z,7.20
2018-06-08T14:01:55.613Z,7.53
2018-06-08T14:04:23.628Z,7.00
2018-06-08T14:06:51.647Z,7.62
2018-06-08T14:09:19.676Z,6.60
2018-06-08T14:11:47.689Z,6.58
2018-06-08T14:14:15.691Z,6.03
2018-06-08T14:16:43.708Z,6.33
2018-06-08T14:19:11.784Z,6.20
2018-06-08T14:21:39.704Z,6.10
2018-06-08T14:24:07.729Z,6.12
2018-06-08T14:26:35.771Z,6.03
2018-06-08T14:29:03.802Z,5.50
2018-06-08T14:31:31.848Z,5.65
2018-06-08T14:33:59.932Z,6.15
2018-06-08T14:36:27.964Z,5.97
2018-06-08T14:38:55.803Z,5.80
2018-06-08T14:41:23.844Z,6.20
2018-06-08T14:43:51.884Z,6.03
2018-06-08T14:46:19.929Z,6.00
2018-06-08T14:48:47.966Z,6.70
2018-06-08T14:51:15.984Z,6.20
2018-06-08T14:53:43.882Z,6.60
2018-06-08T14:56:11.903Z,6.40
2018-06-08T14:58:39.940Z,6.62
2018-06-08T15:01:07.964Z,6.20
2018-06-08T15:03:35.800Z,6.33
2018-06-08T15:06:03.832Z,6.17
2018-06-08T15:08:31.868Z,6.50
2018-06-08T15:10:59.889Z,6.50
2018-06-08T15:13:27.946Z,5.75
2018-06-08T15:15:55.990Z,6.33
2018-06-08T15:18:24.022Z,5.53
2018-06-08T15:20:52.061Z,5.83
2018-06-08T15:23:20.068Z,6.30
2018-06-08T15:25:48.102Z,6.15
2018-06-08T15:28:16.120Z,6.00
2018-06-08T15:30:44.124Z,6.62
2018-06-08T15:33:12.145Z,6.60
2018-06-08T15:35:40.177Z,6.00
2018-06-08T15:38:08.220Z,6.20
2018-06-08T15:40:36.042Z,6.30
2018-06-08T15:43:04.060Z,6.60
2018-06-08T15:45:32.137Z,6.22
2018-06-08T15:48:00.167Z,6.92
2018-06-08T15:50:28.208Z,6.20
2018-06-08T15:52:56.231Z,7.00
2018-06-08T15:55:24.049Z,5.90
2018-06-08T15:57:52.080Z,6.50
2018-06-08T16:00:20.129Z,6.40
2018-06-08T16:02:47.964Z,6.65
2018-06-08T16:05:15.982Z,6.60
2018-06-08T16:07:44.041Z,5.90
2018-06-08T16:10:12.064Z,6.30
2018-06-08T16:12:40.100Z,6.40
2018-06-08T16:15:08.137Z,5.97
2018-06-08T16:17:35.956Z,6.87
2018-06-08T16:20:04.000Z,6.28
2018-06-08T16:22:32.073Z,6.15
2018-06-08T16:25:00.876Z,6.00
2018-06-08T16:27:28.909Z,5.60
2018-06-08T16:29:56.772Z,5.78
2018-06-08T16:32:24.775Z,5.72
2018-06-08T16:34:52.820Z,5.80
2018-06-08T16:37:20.849Z,5.70
2018-06-08T16:39:48.894Z,6.00
2018-06-08T16:42:16.948Z,5.20
2018-06-08T16:44:44.979Z,6.00
2018-06-08T16:47:13.056Z,5.90
2018-06-08T16:49:40.912Z,5.92
2018-06-08T16:52:08.755Z,5.65
2018-06-08T16:54:36.802Z,5.75
2018-06-08T16:57:05.083Z,5.33
2018-06-08T16:59:33.133Z,6.00
2018-06-08T17:02:01.160Z,6.00
2018-06-08T17:04:29.221Z,6.60
2018-06-08T17:06:57.228Z,6.73
2018-06-08T17:09:25.268Z,5.90
2018-06-08T17:11:53.308Z,6.30
2018-06-08T17:14:21.360Z,6.83
2018-06-08T17:16:49.397Z,7.58
2018-06-08T17:19:17.430Z,6.43
2018-06-08T17:21:45.449Z,5.78
2018-06-08T17:24:13.484Z,6.12
2018-06-08T17:26:41.486Z,5.90
2018-06-08T17:29:09.507Z,5.20
2018-06-08T17:31:37.529Z,6.30
2018-06-08T17:34:05.365Z,5.28
2018-06-08T17:36:33.428Z,5.75
2018-06-08T17:39:01.441Z,6.33
2018-06-08T17:41:29.460Z,5.70
2018-06-08T17:43:57.500Z,5.08
2018-06-08T17:46:25.542Z,6.28
2018-06-08T17:48:53.552Z,6.10
2018-06-08T17:51:21.622Z,6.37
2018-06-08T17:53:49.632Z,5.53
2018-06-08T17:56:17.468Z,6.28
2018-06-08T17:58:45.509Z,5.60
2018-06-08T18:01:13.527Z,5.70
2018-06-08T18:03:41.528Z,6.03
2018-06-08T18:06:09.591Z,5.85
2018-06-08T18:08:37.590Z,6.00
2018-06-08T18:11:05.609Z,5.40
2018-06-08T18:13:33.622Z,6.00
2018-06-08T18:16:01.659Z,5.78
2018-06-08T18:18:29.772Z,6.05
2018-06-08T18:20:57.804Z,6.60
2018-06-08T18:23:25.666Z,6.35
2018-06-08T18:25:53.678Z,5.85
2018-06-08T18:28:21.700Z,5.73
2018-06-08T18:30:49.549Z,5.95
2018-06-08T18:33:17.620Z,5.78
2018-06-08T18:35:45.636Z,5.80
2018-06-08T18:38:13.692Z,5.97
2018-06-08T18:40:41.737Z,6.40
2018-06-08T18:43:09.777Z,6.65
2018-06-08T18:45:37.794Z,5.60
2018-06-08T18:48:05.629Z,5.40
2018-06-08T18:50:33.672Z,5.60
2018-06-08T18:53:01.737Z,6.00
2018-06-08T18:55:29.760Z,5.22
2018-06-08T18:57:57.820Z,5.65
2018-06-08T19:00:25.857Z,5.92
2018-06-08T19:02:53.876Z,5.50
2018-06-08T19:05:21.724Z,5.80
2018-06-08T19:07:49.748Z,5.60
2018-06-08T19:10:17.772Z,5.60
2018-06-08T19:12:45.848Z,5.80
2018-06-08T19:15:13.896Z,6.15
2018-06-08T19:17:41.937Z,5.50
2018-06-08T19:20:09.973Z,5.22
2018-06-08T19:22:37.997Z,6.20
2018-06-08T19:25:06.041Z,5.90
2018-06-08T19:27:34.039Z,6.55
2018-06-08T19:30:02.076Z,6.08
2018-06-08T19:32:30.105Z,6.10
2018-06-08T19:34:58.135Z,6.60
2018-06-08T19:37:26.167Z,6.05
2018-06-08T19:39:54.192Z,6.80
2018-06-08T19:42:22.235Z,6.80
2018-06-08T19:44:50.264Z,5.90
2018-06-08T19:47:18.304Z,6.78
2018-06-08T19:49:46.320Z,6.47
2018-06-08T19:52:14.409Z,6.70
2018-06-08T19:54:42.417Z,6.87
2018-06-08T19:57:10.444Z,6.67
2018-06-08T19:59:38.465Z,6.40
2018-06-08T20:02:07.245Z,6.70
2018-06-08T20:04:35.261Z,6.22
2018-06-08T20:07:03.292Z,6.20
2018-06-08T20:09:31.314Z,6.05
2018-06-08T20:11:59.336Z,6.17
2018-06-08T20:14:27.368Z,6.03
2018-06-08T20:16:55.409Z,6.60
2018-06-08T20:19:23.417Z,6.40
2018-06-08T20:21:51.457Z,6.90
2018-06-08T20:24:19.461Z,6.65
2018-06-08T20:26:47.476Z,6.80
2018-06-08T20:29:15.512Z,7.10
2018-06-08T20:31:43.536Z,6.42
2018-06-08T20:34:11.596Z,6.87
2018-06-08T20:36:39.412Z,6.40
2018-06-08T20:39:07.971Z,6.42
2018-06-08T20:41:36.048Z,7.42
2018-06-08T20:44:04.088Z,7.35
2018-06-08T20:46:32.141Z,6.20
2018-06-08T20:48:59.980Z,6.53
2018-06-08T20:51:28.009Z,6.75
2018-06-08T20:53:56.041Z,6.50
2018-06-08T20:56:23.909Z,6.40
2018-06-08T20:58:51.928Z,7.35
2018-06-08T21:01:19.964Z,6.37
2018-06-08T21:03:48.012Z,6.67
2018-06-08T21:06:16.033Z,6.10
2018-06-08T21:08:44.072Z,6.42
2018-06-08T21:11:12.162Z,5.90
2018-06-08T21:13:40.184Z,6.17
2018-06-08T21:16:08.220Z,5.90
2018-06-08T21:18:36.252Z,5.80
2018-06-08T21:21:04.289Z,5.80
2018-06-08T21:23:32.306Z,6.50
2018-06-08T21:26:00.308Z,6.80
2018-06-08T21:28:28.320Z,6.10
2018-06-08T21:30:56.339Z,6.22
2018-06-08T21:33:24.372Z,5.55
2018-06-08T21:35:52.393Z,5.30
2018-06-08T21:38:20.420Z,6.12
2018-06-08T21:40:48.444Z,6.22
2018-06-08T21:43:16.473Z,5.90
2018-06-08T21:45:44.516Z,5.90
2018-06-08T21:48:12.568Z,6.17
2018-06-08T21:50:40.395Z,5.50
2018-06-08T21:53:08.477Z,5.92
2018-06-08T21:55:36.512Z,6.30
2018-06-08T21:58:04.540Z,6.00
2018-06-08T22:00:32.562Z,5.83
2018-06-08T22:03:00.662Z,6.30
2018-06-08T22:05:28.684Z,6.35
2018-06-08T22:07:56.714Z,5.50
2018-06-08T22:10:24.712Z,5.80
2018-06-08T22:12:52.779Z,5.70
2018-06-08T22:15:20.595Z,6.30
2018-06-08T22:17:48.771Z,5.55
2018-06-08T22:20:16.800Z,5.30
2018-06-08T22:22:44.835Z,6.07
2018-06-08T22:25:12.849Z,5.42
2018-06-08T22:27:40.868Z,5.30
2018-06-08T22:30:08.880Z,5.72
2018-06-08T22:32:36.893Z,5.70
2018-06-08T22:35:05.079Z,5.53
2018-06-08T22:37:33.116Z,5.90
2018-06-08T22:40:01.152Z,5.90
2018-06-08T22:42:29.194Z,5.90
2018-06-08T22:44:57.223Z,6.03
2018-06-08T22:47:25.257Z,6.28
2018-06-08T22:49:53.281Z,5.72
2018-06-08T22:52:21.313Z,6.90
2018-06-08T22:54:49.331Z,6.10
2018-06-08T22:57:17.337Z,6.30
2018-06-08T22:59:45.360Z,5.92
2018-06-08T23:02:13.350Z,6.00
2018-06-08T23:04:41.360Z,6.30
2018-06-08T23:07:09.380Z,6.50
2018-06-08T23:09:37.397Z,6.10
2018-06-08T23:12:05.537Z,6.40
2018-06-08T23:14:33.540Z,6.53
2018-06-08T23:17:01.586Z,6.55
2018-06-08T23:19:29.560Z,6.67
2018-06-08T23:21:57.388Z,6.30
2018-06-08T23:24:25.431Z,6.00
2018-06-08T23:26:53.470Z,6.30
2018-06-08T23:29:21.508Z,6.00
2018-06-08T23:31:49.532Z,5.75
2018-06-08T23:34:17.564Z,6.33
2018-06-08T23:36:45.388Z,6.80
2018-06-08T23:39:13.423Z,6.40
2018-06-08T23:41:41.454Z,7.67
2018-06-08T23:44:09.476Z,6.55
2018-06-08T23:46:37.512Z,6.70
2018-06-08T23:49:05.339Z,6.95
2018-06-08T23:51:33.372Z,6.50
2018-06-08T23:54:01.429Z,7.37
2018-06-08T23:56:29.472Z,6.92
2018-06-08T23:58:57.514Z,6.90
